createdAt,value
2017-06-30T00:00:01.700Z,1.00
2017-06-30T00:02:28.173Z,0.90
2017-06-30T00:04:54.701Z,0.80
2017-06-30T00:07:21.183Z,1.00
2017-06-30T00:09:47.655Z,0.93
2017-06-30T00:12:14.144Z,1.07
2017-06-30T00:14:40.649Z,1.13
2017-06-30T00:17:07.925Z,1.00
2017-06-30T00:19:34.441Z,1.10
2017-06-30T00:22:00.931Z,0.87
2017-06-30T00:24:27.442Z,1.00
2017-06-30T00:26:53.904Z,0.90
2017-06-30T00:29:20.408Z,1.20
2017-06-30T00:31:46.958Z,1.00
2017-06-30T00:34:13.445Z,1.00
2017-06-30T00:36:40.007Z,0.90
2017-06-30T00:39:06.485Z,0.97
2017-06-30T00:41:32.968Z,1.53
2017-06-30T00:43:59.487Z,1.33
2017-06-30T00:46:25.974Z,0.90
2017-06-30T00:48:52.522Z,1.10
2017-06-30T00:51:19.758Z,1.63
2017-06-30T00:53:46.248Z,1.00
2017-06-30T00:56:13.384Z,0.73
2017-06-30T00:58:39.881Z,1.00
2017-06-30T01:01:07.133Z,1.00
2017-06-30T01:03:34.381Z,1.10
2017-06-30T01:06:01.598Z,0.93
2017-06-30T01:08:28.315Z,0.90
2017-06-30T01:10:54.808Z,0.80
2017-06-30T01:13:22.035Z,0.80
2017-06-30T01:15:48.533Z,1.10
2017-06-30T01:18:15.024Z,1.00
2017-06-30T01:20:42.285Z,0.90
2017-06-30T01:23:09.546Z,0.93
2017-06-30T01:25:36.025Z,1.00
2017-06-30T01:28:02.541Z,0.90
2017-06-30T01:30:29.032Z,0.90
2017-06-30T01:32:55.530Z,0.90
2017-06-30T01:35:22.080Z,1.13
2017-06-30T01:37:48.598Z,1.13
2017-06-30T01:40:15.148Z,1.00
2017-06-30T01:42:42.394Z,1.00
2017-06-30T01:45:08.898Z,0.90
2017-06-30T01:47:35.476Z,1.27
2017-06-30T01:50:02.787Z,0.97
2017-06-30T01:52:29.318Z,0.90
2017-06-30T01:54:55.832Z,0.80
2017-06-30T01:57:22.419Z,1.40
2017-06-30T01:59:49.671Z,1.00
2017-06-30T02:02:16.913Z,1.00
2017-06-30T02:04:43.444Z,1.07
2017-06-30T02:07:09.921Z,0.90
2017-06-30T02:09:36.396Z,0.80
2017-06-30T02:12:03.109Z,0.80
2017-06-30T02:14:29.587Z,0.77
2017-06-30T02:16:56.838Z,0.80
2017-06-30T02:19:24.079Z,0.80
2017-06-30T02:21:50.570Z,1.10
2017-06-30T02:24:17.317Z,0.80
2017-06-30T02:26:43.848Z,0.90
2017-06-30T02:29:10.353Z,0.83
2017-06-30T02:31:36.869Z,0.83
2017-06-30T02:34:04.506Z,0.97
2017-06-30T02:36:30.986Z,0.90
2017-06-30T02:38:57.512Z,1.00
2017-06-30T02:41:23.990Z,1.00
2017-06-30T02:43:50.489Z,0.80
2017-06-30T02:46:16.945Z,0.73
2017-06-30T02:48:43.473Z,0.90
2017-06-30T02:51:10.010Z,0.80
2017-06-30T02:53:36.556Z,0.90
2017-06-30T02:56:03.031Z,0.90
2017-06-30T02:58:30.287Z,1.10
2017-06-30T03:00:56.809Z,0.90
2017-06-30T03:03:24.050Z,1.00
2017-06-30T03:05:51.263Z,0.80
2017-06-30T03:08:17.763Z,0.70
2017-06-30T03:10:44.248Z,1.00
2017-06-30T03:13:10.886Z,0.83
2017-06-30T03:15:37.359Z,0.90
2017-06-30T03:18:03.825Z,0.90
2017-06-30T03:20:30.331Z,0.80
2017-06-30T03:22:56.793Z,0.83
2017-06-30T03:25:23.352Z,0.80
2017-06-30T03:27:49.846Z,0.80
2017-06-30T03:30:16.359Z,1.00
2017-06-30T03:32:42.861Z,1.20
2017-06-30T03:35:10.073Z,1.10
2017-06-30T03:37:36.592Z,0.90
2017-06-30T03:40:03.089Z,0.90
2017-06-30T03:42:30.330Z,1.10
2017-06-30T03:44:57.563Z,0.80
2017-06-30T03:47:24.059Z,1.00
2017-06-30T03:49:50.618Z,0.70
2017-06-30T03:52:17.143Z,0.93
2017-06-30T03:54:43.631Z,1.10
2017-06-30T03:57:10.127Z,0.80
2017-06-30T03:59:36.593Z,1.50
2017-06-30T04:02:03.117Z,1.00
2017-06-30T04:04:30.326Z,0.90
2017-06-30T04:06:56.841Z,1.10
2017-06-30T04:09:23.314Z,1.47
2017-06-30T04:11:49.810Z,0.90
2017-06-30T04:14:16.309Z,0.90
2017-06-30T04:16:42.797Z,1.00
2017-06-30T04:19:09.285Z,0.90
2017-06-30T04:21:35.783Z,0.90
2017-06-30T04:24:02.249Z,1.30
2017-06-30T04:26:28.751Z,0.80
2017-06-30T04:28:55.990Z,1.10
2017-06-30T04:31:22.700Z,1.10
2017-06-30T04:33:49.201Z,1.00
2017-06-30T04:36:15.668Z,1.00
2017-06-30T04:38:42.167Z,0.97
2017-06-30T04:41:08.632Z,1.00
2017-06-30T04:43:35.152Z,0.93
2017-06-30T04:46:01.653Z,0.90
2017-06-30T04:48:28.147Z,0.90
2017-06-30T04:50:54.578Z,1.07
2017-06-30T04:53:21.124Z,0.90
2017-06-30T04:55:47.609Z,1.00
2017-06-30T04:58:14.099Z,0.87
2017-06-30T05:00:41.325Z,0.80
2017-06-30T05:03:07.820Z,0.80
2017-06-30T05:05:34.330Z,1.03
2017-06-30T05:08:00.821Z,1.00
2017-06-30T05:10:27.333Z,0.90
2017-06-30T05:12:53.822Z,1.10
2017-06-30T05:15:20.280Z,1.00
2017-06-30T05:17:46.759Z,0.80
2017-06-30T05:20:13.223Z,1.00
2017-06-30T05:22:39.729Z,1.00
2017-06-30T05:25:06.211Z,1.00
2017-06-30T05:27:32.741Z,1.00
2017-06-30T05:29:59.202Z,1.00
2017-06-30T05:32:25.667Z,1.70
2017-06-30T05:34:52.295Z,1.30
2017-06-30T05:37:18.761Z,1.00
2017-06-30T05:39:45.238Z,1.20
2017-06-30T05:42:11.749Z,1.00
2017-06-30T05:44:38.237Z,0.80
2017-06-30T05:47:05.509Z,0.90
2017-06-30T05:49:32.006Z,1.40
2017-06-30T05:51:58.527Z,0.90
2017-06-30T05:54:25.117Z,1.10
2017-06-30T05:56:51.597Z,1.10
2017-06-30T05:59:18.102Z,1.00
2017-06-30T06:01:44.596Z,0.90
2017-06-30T06:04:11.851Z,1.60
2017-06-30T06:06:39.096Z,0.90
2017-06-30T06:09:06.316Z,1.10
2017-06-30T06:11:33.044Z,1.00
2017-06-30T06:13:59.559Z,1.27
2017-06-30T06:16:26.043Z,0.90
2017-06-30T06:18:53.445Z,1.00
2017-06-30T06:21:19.963Z,1.00
2017-06-30T06:23:46.416Z,0.97
2017-06-30T06:26:12.917Z,1.07
2017-06-30T06:28:39.413Z,0.90
2017-06-30T06:31:05.912Z,0.80
2017-06-30T06:33:32.389Z,0.80
2017-06-30T06:35:59.913Z,1.10
2017-06-30T06:38:26.373Z,0.90
2017-06-30T06:40:52.873Z,1.00
2017-06-30T06:43:19.437Z,0.90
2017-06-30T06:45:46.632Z,1.10
2017-06-30T06:48:13.141Z,0.80
2017-06-30T06:50:40.385Z,1.03
2017-06-30T06:53:07.601Z,0.80
2017-06-30T06:55:34.170Z,0.90
2017-06-30T06:58:01.392Z,0.90
2017-06-30T07:00:27.855Z,0.80
2017-06-30T07:02:55.213Z,0.80
2017-06-30T07:05:21.677Z,1.03
2017-06-30T07:07:48.156Z,1.00
2017-06-30T07:10:14.647Z,0.80
2017-06-30T07:12:41.181Z,0.80
2017-06-30T07:15:07.725Z,1.03
2017-06-30T07:17:34.819Z,0.97
2017-06-30T07:20:01.371Z,1.30
2017-06-30T07:22:27.866Z,0.87
2017-06-30T07:24:54.395Z,0.80
2017-06-30T07:27:20.916Z,1.00
2017-06-30T07:29:47.377Z,1.00
2017-06-30T07:32:14.630Z,1.40
2017-06-30T07:34:41.877Z,1.47
2017-06-30T07:37:09.074Z,1.20
2017-06-30T07:39:35.596Z,2.70
2017-06-30T07:42:02.075Z,1.40
2017-06-30T07:44:28.568Z,2.27
2017-06-30T07:46:55.055Z,1.00
2017-06-30T07:49:22.327Z,2.20
2017-06-30T07:51:48.808Z,1.77
2017-06-30T07:54:15.324Z,1.00
2017-06-30T07:56:42.031Z,1.70
2017-06-30T07:59:08.530Z,1.70
2017-06-30T08:01:35.057Z,3.07
2017-06-30T08:04:01.602Z,1.80
2017-06-30T08:06:28.832Z,1.70
2017-06-30T08:08:55.512Z,1.00
2017-06-30T08:11:21.992Z,0.93
2017-06-30T08:13:48.456Z,1.13
2017-06-30T08:16:14.987Z,3.47
2017-06-30T08:18:41.444Z,1.60
2017-06-30T08:21:07.875Z,1.97
2017-06-30T08:23:34.430Z,1.10
2017-06-30T08:26:00.921Z,1.00
2017-06-30T08:28:28.287Z,0.83
2017-06-30T08:30:55.501Z,1.13
2017-06-30T08:33:21.969Z,1.13
2017-06-30T08:35:48.532Z,1.00
2017-06-30T08:38:14.989Z,0.90
2017-06-30T08:40:41.440Z,0.97
2017-06-30T08:43:07.964Z,0.80
2017-06-30T08:45:34.457Z,0.90
2017-06-30T08:48:00.948Z,1.03
2017-06-30T08:50:27.433Z,1.30
2017-06-30T08:55:25.700Z,1.20
2017-06-30T08:57:52.199Z,0.90
2017-06-30T09:00:19.519Z,1.70
2017-06-30T09:02:48.011Z,1.77
2017-06-30T09:05:14.516Z,0.83
2017-06-30T09:07:41.023Z,0.90
2017-06-30T09:10:07.495Z,1.00
2017-06-30T09:12:34.011Z,1.00
2017-06-30T09:15:00.503Z,1.00
2017-06-30T09:17:27.713Z,1.10
2017-06-30T09:19:54.249Z,1.00
2017-06-30T09:22:20.752Z,1.40
2017-06-30T09:24:47.228Z,0.93
2017-06-30T09:27:13.847Z,1.00
2017-06-30T09:29:40.325Z,0.90
2017-06-30T09:32:07.537Z,0.73
2017-06-30T09:34:34.049Z,1.20
2017-06-30T09:37:00.545Z,2.07
2017-06-30T09:39:27.789Z,0.77
2017-06-30T09:41:54.989Z,0.90
2017-06-30T09:44:21.508Z,0.77
2017-06-30T09:46:47.971Z,1.00
2017-06-30T09:49:14.451Z,0.87
2017-06-30T09:51:40.987Z,0.80
2017-06-30T09:54:07.476Z,0.80
2017-06-30T09:56:33.937Z,0.90
2017-06-30T09:59:01.254Z,0.90
2017-06-30T10:01:27.745Z,0.80
2017-06-30T10:03:54.293Z,0.80
2017-06-30T10:06:20.797Z,0.80
2017-06-30T10:08:47.307Z,1.27
2017-06-30T10:11:13.837Z,0.80
2017-06-30T10:13:40.546Z,1.00
2017-06-30T10:16:07.010Z,0.70
2017-06-30T10:18:33.504Z,0.80
2017-06-30T10:21:00.237Z,0.80
2017-06-30T10:23:26.702Z,0.90
2017-06-30T10:25:53.147Z,0.90
2017-06-30T10:28:21.270Z,0.90
2017-06-30T10:30:47.751Z,0.70
2017-06-30T10:33:14.994Z,1.03
2017-06-30T10:35:41.465Z,0.80
2017-06-30T10:38:07.934Z,0.70
2017-06-30T10:40:34.453Z,0.90
2017-06-30T10:43:00.916Z,1.20
2017-06-30T10:45:27.423Z,0.87
2017-06-30T10:47:53.888Z,0.80
2017-06-30T10:50:20.531Z,0.80
2017-06-30T10:52:47.749Z,1.20
2017-06-30T10:55:14.241Z,0.93
2017-06-30T10:57:40.744Z,0.80
2017-06-30T11:00:07.619Z,0.80
2017-06-30T11:02:34.129Z,0.80
2017-06-30T11:05:01.342Z,0.80
2017-06-30T11:07:27.873Z,0.80
2017-06-30T11:09:54.346Z,1.00
2017-06-30T11:12:21.559Z,0.80
2017-06-30T11:14:48.077Z,0.90
2017-06-30T11:17:14.562Z,0.90
2017-06-30T11:19:41.197Z,1.00
2017-06-30T11:22:08.387Z,0.80
2017-06-30T11:24:34.865Z,0.80
2017-06-30T11:27:02.133Z,1.00
2017-06-30T11:29:28.635Z,1.57
2017-06-30T11:31:55.138Z,0.87
2017-06-30T11:34:21.607Z,0.87
2017-06-30T11:36:48.113Z,0.80
2017-06-30T11:39:14.574Z,0.80
2017-06-30T11:41:41.106Z,1.20
2017-06-30T11:44:07.580Z,0.97
2017-06-30T11:46:34.125Z,0.70
2017-06-30T11:49:00.625Z,0.90
2017-06-30T11:51:27.830Z,0.73
2017-06-30T11:53:54.675Z,0.80
2017-06-30T11:56:21.111Z,0.70
2017-06-30T11:58:47.634Z,1.10
2017-06-30T12:01:14.150Z,0.80
2017-06-30T12:03:40.889Z,1.00
2017-06-30T12:06:07.369Z,1.00
2017-06-30T12:08:33.847Z,0.80
2017-06-30T12:11:00.345Z,0.80
2017-06-30T12:13:27.605Z,0.90
2017-06-30T12:15:54.145Z,0.90
2017-06-30T12:18:20.644Z,0.80
2017-06-30T12:20:47.189Z,1.10
2017-06-30T12:23:13.691Z,0.80
2017-06-30T12:25:40.205Z,0.87
2017-06-30T12:28:06.678Z,1.10
2017-06-30T12:30:33.140Z,0.93
2017-06-30T12:32:59.666Z,0.80
2017-06-30T12:35:26.163Z,0.80
2017-06-30T12:37:52.681Z,0.80
2017-06-30T12:40:19.238Z,0.70
2017-06-30T12:42:45.724Z,0.80
2017-06-30T12:45:12.246Z,1.20
2017-06-30T12:47:38.711Z,1.10
2017-06-30T12:50:05.242Z,0.73
2017-06-30T12:52:31.738Z,0.70
2017-06-30T12:54:58.221Z,1.10
2017-06-30T12:57:24.753Z,1.00
2017-06-30T12:59:51.298Z,1.00
2017-06-30T13:02:17.803Z,0.80
2017-06-30T13:04:44.348Z,0.93
2017-06-30T13:07:10.788Z,0.93
2017-06-30T13:09:37.297Z,0.80
2017-06-30T13:12:03.783Z,0.87
2017-06-30T13:14:31.032Z,0.70
2017-06-30T13:16:59.362Z,0.80
2017-06-30T13:19:25.862Z,0.80
2017-06-30T13:21:52.403Z,1.37
2017-06-30T13:24:18.874Z,0.80
2017-06-30T13:26:45.366Z,0.90
2017-06-30T13:29:11.878Z,1.00
2017-06-30T13:31:39.365Z,1.40
2017-06-30T13:34:05.854Z,0.90
2017-06-30T13:36:32.441Z,0.80
2017-06-30T13:38:58.924Z,0.83
2017-06-30T13:41:25.395Z,0.80
2017-06-30T13:43:51.936Z,0.90
2017-06-30T13:46:18.402Z,0.77
2017-06-30T13:48:44.855Z,0.90
2017-06-30T13:51:12.126Z,1.10
2017-06-30T13:53:38.645Z,1.33
2017-06-30T13:56:05.190Z,1.10
2017-06-30T13:58:31.685Z,0.70
2017-06-30T14:00:58.157Z,1.00
2017-06-30T14:03:24.704Z,0.87
2017-06-30T14:05:51.244Z,1.73
2017-06-30T14:08:17.735Z,0.70
2017-06-30T14:10:45.007Z,0.93
2017-06-30T14:13:11.469Z,1.13
2017-06-30T14:15:37.963Z,1.10
2017-06-30T14:18:04.437Z,1.00
2017-06-30T14:20:30.939Z,1.00
2017-06-30T14:22:57.474Z,0.90
2017-06-30T14:25:24.015Z,0.90
2017-06-30T14:27:50.557Z,1.00
2017-06-30T14:30:17.053Z,0.80
2017-06-30T14:32:43.589Z,1.07
2017-06-30T14:35:10.805Z,1.07
2017-06-30T14:37:37.395Z,0.80
2017-06-30T14:40:03.870Z,1.10
2017-06-30T14:42:30.330Z,0.70
2017-06-30T14:44:56.834Z,0.90
2017-06-30T14:47:23.303Z,0.70
2017-06-30T14:49:50.553Z,0.90
2017-06-30T14:52:17.776Z,0.80
2017-06-30T14:54:44.300Z,0.80
2017-06-30T14:57:10.779Z,0.83
2017-06-30T14:59:38.071Z,0.80
2017-06-30T15:02:04.598Z,0.80
2017-06-30T15:04:31.132Z,0.80
2017-06-30T15:06:57.660Z,0.93
2017-06-30T15:09:24.139Z,0.90
2017-06-30T15:11:50.605Z,0.90
2017-06-30T15:14:17.144Z,0.90
2017-06-30T15:16:43.639Z,0.83
2017-06-30T15:19:10.165Z,1.00
2017-06-30T15:21:36.651Z,0.83
2017-06-30T15:24:03.120Z,0.77
2017-06-30T15:26:29.654Z,0.70
2017-06-30T15:28:56.159Z,0.90
2017-06-30T15:31:22.646Z,0.70
2017-06-30T15:33:49.915Z,0.80
2017-06-30T15:36:16.401Z,0.70
2017-06-30T15:38:42.942Z,0.70
2017-06-30T15:41:09.412Z,0.90
2017-06-30T15:43:35.986Z,0.80
2017-06-30T15:46:02.474Z,0.90
2017-06-30T15:48:28.963Z,0.90
2017-06-30T15:50:55.524Z,1.30
2017-06-30T15:53:22.769Z,0.90
2017-06-30T15:55:49.263Z,1.07
2017-06-30T15:58:15.807Z,1.00
2017-06-30T16:00:42.293Z,1.10
2017-06-30T16:03:08.814Z,1.17
2017-06-30T16:05:36.072Z,1.00
2017-06-30T16:08:03.298Z,0.80
2017-06-30T16:10:29.926Z,0.90
2017-06-30T16:12:56.444Z,1.10
2017-06-30T16:15:22.926Z,0.90
2017-06-30T16:17:49.441Z,1.10
2017-06-30T16:20:15.950Z,0.90
2017-06-30T16:22:42.617Z,1.27
2017-06-30T16:25:09.147Z,1.00
2017-06-30T16:27:36.365Z,0.97
2017-06-30T16:30:02.901Z,1.07
2017-06-30T16:32:29.420Z,1.07
2017-06-30T16:34:55.965Z,1.50
2017-06-30T16:37:22.447Z,1.00
2017-06-30T16:39:48.951Z,1.00
2017-06-30T16:42:15.453Z,1.20
2017-06-30T16:44:41.947Z,1.10
2017-06-30T16:47:08.482Z,1.20
2017-06-30T16:49:34.981Z,1.20
2017-06-30T16:52:01.494Z,1.00
2017-06-30T16:54:27.950Z,0.87
2017-06-30T16:56:54.425Z,0.80
2017-06-30T16:59:21.083Z,0.90
2017-06-30T17:01:47.567Z,1.00
2017-06-30T17:04:14.763Z,0.90
2017-06-30T17:06:41.343Z,0.93
2017-06-30T17:09:08.575Z,1.20
2017-06-30T17:11:35.136Z,0.90
2017-06-30T17:14:02.340Z,1.37
2017-06-30T17:16:28.873Z,1.10
2017-06-30T17:18:55.348Z,1.10
2017-06-30T17:21:22.571Z,1.00
2017-06-30T17:23:49.073Z,0.90
2017-06-30T17:26:15.538Z,1.20
2017-06-30T17:28:42.006Z,1.00
2017-06-30T17:31:08.525Z,0.97
2017-06-30T17:33:35.748Z,1.00
2017-06-30T17:36:02.282Z,1.03
2017-06-30T17:38:28.755Z,0.93
2017-06-30T17:40:55.253Z,1.13
2017-06-30T17:43:21.960Z,1.07
2017-06-30T17:45:48.465Z,0.90
2017-06-30T17:48:14.946Z,1.10
2017-06-30T17:50:41.465Z,1.10
2017-06-30T17:53:07.970Z,1.20
2017-06-30T17:55:34.581Z,1.20
2017-06-30T17:58:01.807Z,1.10
2017-06-30T18:00:28.304Z,1.13
2017-06-30T18:02:54.797Z,1.10
2017-06-30T18:05:22.008Z,1.00
2017-06-30T18:07:48.582Z,0.93
2017-06-30T18:10:15.825Z,1.00
2017-06-30T18:12:43.055Z,3.10
2017-06-30T18:15:09.579Z,5.03
2017-06-30T18:17:36.133Z,3.97
2017-06-30T18:20:02.694Z,2.07
2017-06-30T18:22:29.190Z,1.60
2017-06-30T18:24:55.639Z,1.13
2017-06-30T18:27:22.973Z,1.03
2017-06-30T18:29:49.432Z,1.33
2017-06-30T18:32:16.662Z,1.20
2017-06-30T18:34:43.359Z,3.27
2017-06-30T18:37:09.865Z,4.17
2017-06-30T18:39:36.362Z,4.60
2017-06-30T18:42:02.880Z,6.50
2017-06-30T18:44:29.372Z,7.00
2017-06-30T18:46:55.940Z,9.57
2017-06-30T18:49:22.419Z,8.40
2017-06-30T18:51:49.630Z,22.77
2017-06-30T18:54:16.156Z,26.53
2017-06-30T18:56:42.635Z,10.80
2017-06-30T18:59:09.104Z,7.67
2017-06-30T19:01:35.670Z,8.70
2017-06-30T19:04:02.976Z,14.63
2017-06-30T19:06:29.742Z,10.57
2017-06-30T19:08:56.250Z,5.30
2017-06-30T19:11:22.719Z,2.70
2017-06-30T19:13:49.291Z,2.23
2017-06-30T19:16:16.514Z,3.53
2017-06-30T19:18:43.044Z,3.60
2017-06-30T19:21:09.533Z,6.50
2017-06-30T19:23:36.021Z,6.70
2017-06-30T19:26:02.525Z,6.60
2017-06-30T19:28:29.049Z,6.70
2017-06-30T19:30:55.823Z,5.10
2017-06-30T19:33:22.299Z,5.07
2017-06-30T19:35:48.821Z,6.20
2017-06-30T19:38:15.511Z,10.17
2017-06-30T19:40:42.002Z,7.97
2017-06-30T19:43:08.476Z,18.50
2017-06-30T19:45:34.971Z,11.30
2017-06-30T19:48:01.426Z,4.50
2017-06-30T19:50:27.962Z,1.80
2017-06-30T19:52:54.433Z,1.20
2017-06-30T19:55:21.649Z,1.20
2017-06-30T19:57:48.187Z,1.50
2017-06-30T20:00:14.661Z,1.20
2017-06-30T20:02:41.917Z,0.90
2017-06-30T20:05:19.715Z,1.00
2017-06-30T20:07:46.246Z,1.00
2017-06-30T20:10:12.821Z,0.90
2017-06-30T20:12:39.322Z,1.00
2017-06-30T20:15:06.003Z,1.00
2017-06-30T20:17:32.525Z,1.10
2017-06-30T20:19:59.056Z,1.00
2017-06-30T20:22:26.054Z,1.30
2017-06-30T20:24:53.300Z,1.17
2017-06-30T20:27:20.520Z,1.00
2017-06-30T20:29:47.070Z,1.00
2017-06-30T20:32:13.531Z,1.10
2017-06-30T20:34:40.076Z,1.10
2017-06-30T20:37:06.565Z,1.27
2017-06-30T20:39:33.115Z,1.10
2017-06-30T20:42:00.331Z,0.90
2017-06-30T20:44:26.818Z,1.23
2017-06-30T20:46:53.375Z,1.00
2017-06-30T20:49:19.867Z,1.27
2017-06-30T20:51:47.114Z,1.03
2017-06-30T20:54:14.429Z,0.90
2017-06-30T20:56:40.940Z,1.30
2017-06-30T20:59:07.462Z,1.50
2017-06-30T21:01:33.983Z,1.30
2017-06-30T21:04:00.467Z,1.03
2017-06-30T21:06:27.039Z,1.60
2017-06-30T21:08:54.400Z,1.33
2017-06-30T21:11:20.886Z,1.13
2017-06-30T21:13:47.423Z,1.10
2017-06-30T21:16:13.944Z,1.33
2017-06-30T21:18:40.669Z,1.93
2017-06-30T21:21:07.196Z,1.70
2017-06-30T21:23:33.666Z,1.40
2017-06-30T21:26:00.206Z,1.43
2017-06-30T21:28:26.677Z,1.23
2017-06-30T21:30:53.377Z,1.37
2017-06-30T21:33:19.872Z,1.70
2017-06-30T21:35:46.348Z,1.57
2017-06-30T21:38:12.892Z,1.60
2017-06-30T21:40:46.139Z,1.47
2017-06-30T21:43:12.678Z,1.27
2017-06-30T21:45:39.141Z,1.20
2017-06-30T21:48:05.624Z,1.70
2017-06-30T21:50:32.089Z,1.87
2017-06-30T21:52:58.823Z,1.50
2017-06-30T21:55:25.323Z,1.70
2017-06-30T21:57:51.851Z,1.30
2017-06-30T22:00:18.354Z,1.20
2017-06-30T22:02:45.558Z,1.43
2017-06-30T22:05:12.277Z,1.27
2017-06-30T22:07:38.746Z,1.20
2017-06-30T22:10:05.617Z,1.27
2017-06-30T22:12:32.857Z,1.50
2017-06-30T22:15:00.091Z,1.67
2017-06-30T22:17:26.622Z,2.00
2017-06-30T22:19:53.137Z,1.40
2017-06-30T22:22:19.678Z,1.47
2017-06-30T22:24:46.167Z,1.30
2017-06-30T22:27:13.797Z,1.50
2017-06-30T22:29:41.076Z,1.63
2017-06-30T22:32:07.544Z,1.50
2017-06-30T22:34:34.021Z,1.80
2017-06-30T22:37:00.523Z,1.10
2017-06-30T22:39:27.001Z,1.60
2017-06-30T22:41:53.522Z,1.37
2017-06-30T22:44:20.013Z,1.40
2017-06-30T22:46:46.464Z,1.63
2017-06-30T22:49:12.970Z,1.20
2017-06-30T22:51:39.481Z,1.20
2017-06-30T22:54:06.019Z,1.43
2017-06-30T22:56:32.550Z,1.40
2017-06-30T22:58:59.017Z,1.30
2017-06-30T23:01:25.522Z,1.47
2017-06-30T23:03:52.022Z,1.80
2017-06-30T23:06:18.511Z,1.13
2017-06-30T23:08:45.026Z,1.50
2017-06-30T23:11:11.575Z,1.30
2017-06-30T23:13:38.100Z,1.37
2017-06-30T23:16:04.583Z,1.57
2017-06-30T23:18:31.258Z,1.30
2017-06-30T23:20:57.748Z,1.30
2017-06-30T23:23:25.053Z,1.63
2017-06-30T23:25:51.799Z,2.00
2017-06-30T23:28:18.344Z,1.50
2017-06-30T23:30:44.905Z,1.67
2017-06-30T23:33:12.214Z,1.37
2017-06-30T23:35:38.788Z,1.60
2017-06-30T23:38:06.107Z,1.50
2017-06-30T23:40:32.663Z,1.60
2017-06-30T23:42:59.209Z,1.50
2017-06-30T23:45:25.749Z,1.20
2017-06-30T23:47:53.055Z,1.50
2017-06-30T23:50:19.590Z,1.37
2017-06-30T23:52:46.066Z,1.63
2017-06-30T23:55:13.564Z,1.23
2017-06-30T23:57:40.061Z,1.10
